Time;durP1;ratioP1;P1;durP2;ratioP2;P2;SDS_P1;SDS_P2;PMS_P1;PMS_P2;Temp;Humidity;BMP_temperature;BMP_pressure;BME280_temperature;BME280_humidity;BME280_pressure;Samples;Min_cycle;Max_cycle;Signal;HPM_P1;HPM_P2
2023/08/05 00:00:37;;;;;;;5.93;2.53;;;;;;;16.06;83.38;101605.09;4990726;28;20038;-89
2023/08/05 00:03:03;;;;;;;2.63;2.20;;;;;;;16.05;83.58;101595.56;4977755;28;20025;-90
2023/08/05 00:05:28;;;;;;;3.40;2.33;;;;;;;16.03;83.64;101592.13;4986050;28;20022;-90
2023/08/05 00:07:53;;;;;;;4.05;2.35;;;;;;;16.03;83.62;101597.38;4992904;28;20034;-90
2023/08/05 00:10:18;;;;;;;4.53;2.30;;;;;;;16.01;83.85;101599.19;4978652;28;20038;-89
2023/08/05 00:12:44;;;;;;;3.65;2.40;;;;;;;15.98;83.76;101591.44;4976894;28;20019;-89
2023/08/05 00:15:09;;;;;;;3.83;2.25;;;;;;;15.96;84.13;101593.25;4986916;28;20034;-90
2023/08/05 00:17:35;;;;;;;4.40;2.40;;;;;;;15.92;84.26;101589.88;4974574;28;20030;-89
2023/08/05 00:20:00;;;;;;;3.90;2.15;;;;;;;15.91;84.22;101580.28;4974000;28;20070;-90
2023/08/05 00:22:25;;;;;;;3.55;2.50;;;;;;;15.88;83.93;101578.66;4975413;28;20034;-90
2023/08/05 00:24:51;;;;;;;3.55;2.35;;;;;;;15.88;84.20;101581.28;4992999;28;20080;-89
2023/08/05 00:27:16;;;;;;;3.80;2.38;;;;;;;15.87;84.22;101579.56;4992398;28;20510;-84
2023/08/05 00:29:41;;;;;;;3.33;2.17;;;;;;;15.88;84.25;101588.28;4995897;28;20057;-90
2023/08/05 00:32:07;;;;;;;3.13;2.38;;;;;;;15.88;84.81;101580.41;4996867;28;20054;-89
2023/08/05 00:34:34;;;;;;;4.18;2.60;;;;;;;15.86;85.04;101577.84;4995422;28;20026;-90
2023/08/05 00:36:59;;;;;;;5.95;2.55;;;;;;;15.85;85.11;101576.13;4997075;28;20489;-88
2023/08/05 00:39:24;;;;;;;3.90;2.30;;;;;;;15.83;85.56;101572.69;4994655;28;20026;-89
2023/08/05 00:41:50;;;;;;;3.97;2.45;;;;;;;15.82;85.64;101568.34;4995136;28;20121;-90
2023/08/05 00:44:15;;;;;;;4.97;2.50;;;;;;;15.82;85.84;101570.97;4995486;28;20041;-89
2023/08/05 00:46:41;;;;;;;3.97;2.67;;;;;;;15.81;85.70;101568.38;5001983;28;20041;-90
2023/08/05 00:49:07;;;;;;;3.83;2.50;;;;;;;15.80;86.35;101570.16;5002126;28;20038;-89
2023/08/05 00:51:33;;;;;;;3.65;2.60;;;;;;;15.77;86.30;101562.38;5003140;28;20053;-89
2023/08/05 00:53:58;;;;;;;3.20;2.50;;;;;;;15.75;86.08;101558.97;5004192;28;20042;-89
2023/08/05 00:56:24;;;;;;;2.88;2.40;;;;;;;15.73;86.10;101555.53;5001410;28;20052;-89
2023/08/05 00:58:49;;;;;;;4.03;2.60;;;;;;;15.73;85.96;101550.28;4993725;28;20084;-90
2023/08/05 01:01:14;;;;;;;3.28;2.30;;;;;;;15.69;86.47;101548.72;4977330;28;20026;-89
2023/08/05 01:03:40;;;;;;;4.10;2.38;;;;;;;15.66;86.17;101556.69;4994115;28;20423;-89
2023/08/05 01:06:05;;;;;;;5.28;2.80;;;;;;;15.65;86.01;101549.72;4995299;28;20085;-89
2023/08/05 01:08:32;;;;;;;3.63;2.50;;;;;;;15.63;85.90;101542.75;4993610;28;20069;-89
2023/08/05 01:11:00;;;;;;;4.32;2.40;;;;;;;15.59;86.21;101533.28;4995585;28;20493;-89
2023/08/05 01:13:25;;;;;;;4.00;2.63;;;;;;;15.56;85.90;101530.75;4994359;28;20058;-89
2023/08/05 01:15:50;;;;;;;3.30;2.38;;;;;;;15.55;85.98;101533.47;4996363;28;20026;-90
2023/08/05 01:18:17;;;;;;;4.28;2.40;;;;;;;15.55;86.18;101526.44;4995763;28;20108;-89
2023/08/05 01:20:50;;;;;;;3.55;2.20;;;;;;;15.53;86.11;101525.66;4994536;28;20046;-85
2023/08/05 01:23:30;;;;;;;3.08;2.33;;;;;;;15.47;86.05;101524.06;4992549;28;20034;-90
2023/08/05 01:25:56;;;;;;;3.55;2.60;;;;;;;15.42;86.36;101519.91;4995352;28;20037;-85
2023/08/05 01:28:21;;;;;;;4.50;2.42;;;;;;;15.35;86.89;101526.31;4993837;28;20126;-85
2023/08/05 01:30:48;;;;;;;4.47;2.63;;;;;;;15.29;87.30;101530.84;4994884;28;20109;-90
2023/08/05 01:33:15;;;;;;;3.63;2.60;;;;;;;15.26;87.60;101530.94;4995984;28;20080;-90
2023/08/05 01:35:47;;;;;;;4.53;2.70;;;;;;;15.22;87.71;101529.31;4995404;28;20041;-90
2023/08/05 01:38:12;;;;;;;3.47;2.53;;;;;;;15.22;87.16;101534.56;4993862;28;20066;-90
2023/08/05 01:40:37;;;;;;;4.28;2.30;;;;;;;15.16;86.59;101525.16;4996205;28;20061;-90
2023/08/05 01:43:02;;;;;;;6.18;2.97;;;;;;;15.13;87.11;101519.16;4996157;28;20022;-89
2023/08/05 01:45:28;;;;;;;3.92;2.80;;;;;;;15.08;88.01;101527.19;4993810;28;20438;-89
2023/08/05 01:47:53;;;;;;;4.38;2.50;;;;;;;15.06;87.97;101522.88;4995661;28;20462;-90
2023/08/05 01:50:18;;;;;;;3.42;2.58;;;;;;;15.05;88.82;101527.28;4995935;28;20030;-90
2023/08/05 01:52:44;;;;;;;3.80;2.80;;;;;;;15.04;89.08;101533.44;4995258;28;20032;-90
2023/08/05 01:55:09;;;;;;;4.10;2.42;;;;;;;15.07;89.17;101527.22;4994609;28;20034;-90
2023/08/05 01:57:34;;;;;;;6.22;2.63;;;;;;;15.07;89.24;101524.59;4995388;28;20031;-90
2023/08/05 02:00:00;;;;;;;5.10;3.08;;;;;;;15.06;89.34;101523.75;4991121;28;20026;-90
2023/08/05 02:02:25;;;;;;;4.85;2.63;;;;;;;15.06;89.63;101522.88;4994187;28;20026;-90
2023/08/05 02:04:50;;;;;;;3.65;2.60;;;;;;;15.06;89.69;101528.13;4991662;28;20038;-90
2023/08/05 02:07:15;;;;;;;4.20;2.80;;;;;;;15.05;89.86;101524.66;4994845;28;20035;-90
2023/08/05 02:09:41;;;;;;;3.65;2.67;;;;;;;15.05;88.96;101515.94;4992855;28;20038;-89
2023/08/05 02:12:06;;;;;;;3.60;2.67;;;;;;;15.00;89.28;101523.97;4992670;28;20027;-90
2023/08/05 02:14:32;;;;;;;4.10;3.00;;;;;;;14.97;89.77;101522.31;4994509;28;20026;-90
2023/08/05 02:16:57;;;;;;;5.35;3.00;;;;;;;14.96;89.96;101523.22;4993308;28;20101;-90
2023/08/05 02:19:23;;;;;;;5.60;3.00;;;;;;;14.96;89.76;101528.44;4992853;28;20065;-90
2023/08/05 02:21:48;;;;;;;4.18;2.88;;;;;;;14.94;89.92;101530.25;4992734;28;20454;-90
2023/08/05 02:24:13;;;;;;;4.70;2.85;;;;;;;14.94;90.00;101532.88;4994259;28;20027;-90
2023/08/05 02:26:38;;;;;;;3.83;3.15;;;;;;;14.92;90.06;101532.06;4994795;28;20409;-85
2023/08/05 02:29:04;;;;;;;4.20;2.78;;;;;;;14.91;90.34;101530.34;4993750;28;20022;-90
2023/08/05 02:31:29;;;;;;;4.03;2.70;;;;;;;14.90;90.32;101520.78;4993261;28;20053;-90
2023/08/05 02:33:54;;;;;;;4.88;3.15;;;;;;;14.87;90.65;101519.13;4996013;28;20081;-89
2023/08/05 02:36:20;;;;;;;5.00;2.90;;;;;;;14.86;90.27;101512.19;4996246;28;20049;-90
2023/08/05 02:38:45;;;;;;;4.30;3.10;;;;;;;14.83;90.38;101511.44;5002945;28;20101;-90
2023/08/05 02:41:10;;;;;;;4.97;2.80;;;;;;;14.79;90.59;101505.41;4993228;28;20128;-90
2023/08/05 02:43:36;;;;;;;4.75;2.92;;;;;;;14.77;90.36;101503.75;4993619;28;20042;-90
2023/08/05 02:46:01;;;;;;;4.82;2.75;;;;;;;14.75;89.63;101495.97;4994858;28;20088;-90
2023/08/05 02:48:27;;;;;;;4.20;2.78;;;;;;;14.71;89.55;101503.06;4993074;28;20034;-89
2023/08/05 02:50:53;;;;;;;5.43;3.15;;;;;;;14.65;90.14;101502.38;4993952;28;20038;-90
2023/08/05 02:53:19;;;;;;;5.28;3.00;;;;;;;14.62;90.18;101497.22;4993110;28;20033;-90
2023/08/05 02:55:45;;;;;;;5.00;2.75;;;;;;;14.59;90.79;101498.19;4993990;28;20046;-90
2023/08/05 02:58:10;;;;;;;5.43;3.08;;;;;;;14.57;90.67;101497.38;4993150;28;20036;-90
2023/08/05 03:00:36;;;;;;;4.70;2.80;;;;;;;14.56;90.86;101498.28;4991778;28;20058;-90
2023/08/05 03:03:01;;;;;;;4.07;2.70;;;;;;;14.55;90.95;101500.06;4976043;28;20029;-90
2023/08/05 03:05:26;;;;;;;5.57;3.05;;;;;;;14.56;91.29;101500.91;4994203;28;20381;-90
2023/08/05 03:07:52;;;;;;;5.32;2.90;;;;;;;14.58;91.27;101496.47;4992640;28;20027;-90
2023/08/05 03:10:17;;;;;;;6.78;3.03;;;;;;;14.60;91.36;101497.28;4992823;28;20093;-89
2023/08/05 03:12:42;;;;;;;4.43;2.88;;;;;;;14.61;91.00;101483.28;4991452;28;20425;-90
2023/08/05 03:15:08;;;;;;;5.10;3.17;;;;;;;14.62;91.21;101485.00;4994001;28;20038;-90
2023/08/05 03:17:35;;;;;;;5.07;3.00;;;;;;;14.62;91.46;101482.38;4993820;28;20023;-90
2023/08/05 03:20:04;;;;;;;5.95;3.45;;;;;;;14.62;91.34;101476.28;4991715;28;20042;-90
2023/08/05 03:22:30;;;;;;;4.65;2.97;;;;;;;14.63;91.61;101476.25;4993577;28;20065;-90
2023/08/05 03:24:55;;;;;;;4.00;2.97;;;;;;;14.64;91.82;101472.72;4991788;28;20560;-90
2023/08/05 03:27:20;;;;;;;6.60;3.00;;;;;;;14.65;91.61;101470.94;4992152;28;20449;-90
2023/08/05 03:29:46;;;;;;;4.90;3.30;;;;;;;14.68;91.93;101476.13;4992225;28;20038;-90
2023/08/05 03:32:12;;;;;;;5.40;3.22;;;;;;;14.66;91.69;101476.16;4993065;28;20109;-90
2023/08/05 03:34:37;;;;;;;4.97;3.15;;;;;;;14.68;91.64;101477.00;4992480;28;20109;-89
2023/08/05 03:37:03;;;;;;;6.50;3.50;;;;;;;14.68;91.84;101474.38;4992983;28;20041;-90
2023/08/05 03:39:28;;;;;;;5.25;3.20;;;;;;;14.68;91.83;101469.13;4991182;28;20030;-89
2023/08/05 03:41:55;;;;;;;4.38;3.22;;;;;;;14.67;91.79;101464.75;4975324;28;20071;-90
2023/08/05 03:44:20;;;;;;;4.72;3.10;;;;;;;14.66;91.91;101459.56;4992018;28;20037;-90
2023/08/05 03:46:45;;;;;;;5.22;3.33;;;;;;;14.64;91.86;101449.16;4994090;28;20018;-90
2023/08/05 03:49:10;;;;;;;4.65;3.33;;;;;;;14.64;91.91;101458.75;4992080;28;20041;-90
2023/08/05 03:51:36;;;;;;;6.07;3.50;;;;;;;14.62;92.14;101450.97;4991814;28;20517;-89
2023/08/05 03:54:01;;;;;;;6.20;3.50;;;;;;;14.61;91.97;101445.75;4991758;28;20382;-91
2023/08/05 03:56:27;;;;;;;5.60;3.10;;;;;;;14.59;91.91;101439.72;4991394;28;20026;-90
2023/08/05 03:58:55;;;;;;;5.55;3.70;;;;;;;14.56;92.17;101430.19;4992053;28;20018;-90
2023/08/05 04:01:22;;;;;;;4.82;3.30;;;;;;;14.54;92.33;101426.78;4991749;28;20262;-89
2023/08/05 04:03:49;;;;;;;5.25;3.55;;;;;;;14.50;92.75;101428.66;4973741;28;20022;-90
2023/08/05 04:06:15;;;;;;;5.85;3.60;;;;;;;14.50;92.44;101425.19;4991898;28;20138;-89
2023/08/05 04:08:41;;;;;;;5.63;3.80;;;;;;;14.48;92.63;101421.75;4991853;28;20041;-90
2023/08/05 04:11:06;;;;;;;6.85;3.47;;;;;;;14.46;92.57;101421.78;4991074;28;20038;-90
2023/08/05 04:13:33;;;;;;;4.68;3.33;;;;;;;14.45;92.40;101427.09;4992456;28;20026;-90
2023/08/05 04:15:59;;;;;;;5.22;3.50;;;;;;;14.44;92.75;101420.13;4972909;28;20033;-90
2023/08/05 04:18:24;;;;;;;6.35;3.35;;;;;;;14.43;93.08;101419.28;4988579;28;20019;-90
2023/08/05 04:20:51;;;;;;;5.55;3.35;;;;;;;14.41;93.11;101421.94;4990921;28;20045;-90
2023/08/05 04:23:20;;;;;;;5.78;3.83;;;;;;;14.41;93.09;101421.09;4984747;28;20110;-90
2023/08/05 04:25:47;;;;;;;5.97;3.38;;;;;;;14.41;93.42;101426.34;4990013;28;20033;-89
2023/08/05 04:28:13;;;;;;;4.43;3.35;;;;;;;14.41;93.21;101427.19;4992078;28;20034;-90
2023/08/05 04:30:40;;;;;;;5.75;3.50;;;;;;;14.41;93.40;101421.94;4993128;28;20033;-90
2023/08/05 04:33:05;;;;;;;5.50;3.28;;;;;;;14.40;93.52;101409.75;4993461;28;20045;-91
2023/08/05 04:35:31;;;;;;;6.35;3.55;;;;;;;14.38;93.52;101401.09;4992883;28;20502;-89
2023/08/05 04:37:56;;;;;;;4.57;3.50;;;;;;;14.38;93.51;101397.63;4992523;28;20027;-90
2023/08/05 04:40:21;;;;;;;6.97;3.90;;;;;;;14.38;93.32;101390.63;4993187;28;20038;-90
2023/08/05 04:42:47;;;;;;;6.22;3.58;;;;;;;14.40;93.69;101383.59;4993076;28;20105;-89
2023/08/05 04:45:12;;;;;;;6.88;3.55;;;;;;;14.41;93.69;101382.69;4992737;28;20041;-90
2023/08/05 04:47:37;;;;;;;6.13;4.00;;;;;;;14.41;93.79;101384.47;4992406;28;20080;-90
2023/08/05 04:50:03;;;;;;;5.43;3.53;;;;;;;14.41;93.79;101385.28;4991381;28;20022;-90
2023/08/05 04:52:28;;;;;;;5.72;3.92;;;;;;;14.42;93.87;101380.94;4988598;28;20444;-90
2023/08/05 04:54:53;;;;;;;8.13;4.35;;;;;;;14.44;93.97;101378.25;4993925;28;20037;-89
2023/08/05 04:57:19;;;;;;;7.15;3.88;;;;;;;14.44;94.11;101379.09;4994406;28;20022;-90
2023/08/05 04:59:44;;;;;;;6.13;4.07;;;;;;;14.44;93.99;101381.72;4994985;28;20034;-89
2023/08/05 05:02:10;;;;;;;7.85;3.97;;;;;;;14.46;94.18;101387.75;4994617;28;20397;-90
2023/08/05 05:04:35;;;;;;;4.85;3.75;;;;;;;14.48;93.46;101379.88;4996494;28;20105;-90
2023/08/05 05:07:01;;;;;;;5.80;4.28;;;;;;;14.49;94.38;101384.19;4994985;28;20063;-90
2023/08/05 05:09:27;;;;;;;6.80;4.32;;;;;;;14.50;94.35;101380.69;4996590;28;20106;-89
2023/08/05 05:11:53;;;;;;;6.20;4.20;;;;;;;14.52;94.50;101378.84;4995403;28;20022;-89
2023/08/05 05:14:19;;;;;;;7.43;4.55;;;;;;;14.54;94.68;101379.63;4992103;28;20029;-90
2023/08/05 05:16:45;;;;;;;6.63;4.50;;;;;;;14.56;94.40;101378.69;4995939;28;20030;-91
2023/08/05 05:19:10;;;;;;;8.07;4.43;;;;;;;14.57;94.71;101388.28;4996122;28;20105;-89
2023/08/05 05:21:35;;;;;;;7.15;4.40;;;;;;;14.57;94.64;101374.31;4996033;28;20482;-90
2023/08/05 05:24:00;;;;;;;6.45;4.25;;;;;;;14.59;94.76;101377.72;4992902;28;20589;-90
2023/08/05 05:26:26;;;;;;;7.93;4.50;;;;;;;14.58;94.54;101370.78;4976964;28;20070;-90
2023/08/05 05:28:51;;;;;;;8.70;4.70;;;;;;;14.60;94.84;101374.22;4993035;28;20202;-90
2023/08/05 05:31:16;;;;;;;9.48;4.65;;;;;;;14.63;94.98;101366.25;4995992;28;20375;-89
2023/08/05 05:33:47;;;;;;;6.78;4.18;;;;;;;14.67;95.02;101364.38;4995300;28;20038;-90
2023/08/05 05:36:12;;;;;;;6.90;4.20;;;;;;;14.67;94.78;101364.38;4995942;28;20394;-89
2023/08/05 05:38:37;;;;;;;5.18;3.70;;;;;;;14.67;94.76;101365.25;4995848;28;20049;-90
2023/08/05 05:41:03;;;;;;;6.85;4.32;;;;;;;14.68;94.88;101359.13;4996435;28;20053;-90
2023/08/05 05:43:28;;;;;;;6.22;4.07;;;;;;;14.69;95.29;101362.59;4995722;28;20037;-90
2023/08/05 05:45:53;;;;;;;8.32;4.13;;;;;;;14.70;95.17;101359.91;4996128;28;20030;-90
2023/08/05 05:48:19;;;;;;;5.65;4.15;;;;;;;14.71;95.26;101361.63;4996002;28;20023;-90
2023/08/05 05:50:44;;;;;;;6.00;3.88;;;;;;;14.70;95.15;101359.91;4995902;28;20084;-90
2023/08/05 05:53:13;;;;;;;5.80;4.40;;;;;;;14.70;95.37;101370.38;4995047;28;20474;-90
2023/08/05 05:55:41;;;;;;;6.63;4.32;;;;;;;14.71;95.41;101366.03;4996129;28;20064;-90
2023/08/05 05:58:06;;;;;;;7.53;4.60;;;;;;;14.72;95.54;101362.50;5002078;28;20074;-90
2023/08/05 06:00:31;;;;;;;6.13;4.25;;;;;;;14.75;95.35;101365.00;4995480;28;20458;-91
2023/08/05 06:02:56;;;;;;;7.38;4.45;;;;;;;14.77;95.23;101364.94;4992670;28;20057;-90
2023/08/05 06:05:22;;;;;;;6.22;4.32;;;;;;;14.80;95.13;101362.22;4993977;28;20041;-90
2023/08/05 06:07:47;;;;;;;7.68;4.50;;;;;;;14.84;95.61;101362.06;4994929;28;20100;-90
2023/08/05 06:10:14;;;;;;;6.65;4.75;;;;;;;14.87;95.58;101358.47;4994673;28;20081;-90
2023/08/05 06:12:40;;;;;;;6.53;4.45;;;;;;;14.91;95.09;101359.22;4977052;28;20034;-89
2023/08/05 06:15:08;;;;;;;7.80;4.78;;;;;;;14.96;95.76;101357.28;4990690;28;20025;-90
2023/08/05 06:17:33;;;;;;;5.80;4.40;;;;;;;15.02;95.82;101357.06;4995729;28;20589;-90
2023/08/05 06:19:58;;;;;;;7.45;4.68;;;;;;;15.06;96.07;101353.44;4992838;28;20129;-90
2023/08/05 06:22:24;;;;;;;7.75;4.85;;;;;;;15.08;95.05;101353.38;4993796;28;20026;-90
2023/08/05 06:24:50;;;;;;;7.28;4.75;;;;;;;15.10;94.79;101348.94;4995343;28;20038;-90
2023/08/05 06:27:16;;;;;;;6.68;4.47;;;;;;;15.11;95.08;101337.53;4993756;28;20723;-90
2023/08/05 06:29:41;;;;;;;7.25;4.93;;;;;;;15.12;94.41;101339.25;4992495;28;20030;-91
2023/08/05 06:32:06;;;;;;;8.40;4.53;;;;;;;15.14;95.06;101338.25;4993379;28;20029;-90
2023/08/05 06:34:32;;;;;;;6.32;4.50;;;;;;;15.22;96.11;101340.59;4992476;28;20077;-90
2023/08/05 06:36:57;;;;;;;7.65;4.75;;;;;;;15.30;95.71;101349.03;4992836;28;20030;-90
2023/08/05 06:39:22;;;;;;;7.88;4.35;;;;;;;15.39;95.33;101344.34;4993545;28;20359;-89
2023/08/05 06:41:48;;;;;;;8.27;4.65;;;;;;;15.42;94.65;101333.75;4993782;28;20026;-90
2023/08/05 06:44:13;;;;;;;6.43;4.63;;;;;;;15.49;94.72;101332.63;4993593;28;20033;-90
2023/08/05 06:46:39;;;;;;;10.15;5.07;;;;;;;15.54;94.59;101335.91;4993844;28;20042;-90
2023/08/05 06:49:05;;;;;;;8.30;4.57;;;;;;;15.59;95.36;101328.72;4992019;28;20478;-90
2023/08/05 06:51:32;;;;;;;7.40;4.68;;;;;;;15.63;93.90;101322.44;4991968;28;20034;-89
2023/08/05 06:53:57;;;;;;;7.63;4.38;;;;;;;15.66;94.06;101326.69;4990588;28;20062;-91
2023/08/05 06:56:22;;;;;;;8.88;5.00;;;;;;;15.69;93.49;101333.63;4993466;28;20529;-90
2023/08/05 06:58:48;;;;;;;6.65;5.20;;;;;;;15.73;93.00;101332.56;4992678;28;20026;-90
2023/08/05 07:01:15;;;;;;;6.97;4.82;;;;;;;15.73;92.25;101327.31;4992118;28;20508;-92
2023/08/05 07:03:42;;;;;;;7.25;5.13;;;;;;;15.72;92.82;101333.47;4989168;28;20104;-90
2023/08/05 07:06:07;;;;;;;8.10;5.03;;;;;;;15.72;92.37;101334.34;4991215;28;20061;-90
2023/08/05 07:08:33;;;;;;;7.85;5.43;;;;;;;15.77;93.05;101321.03;4994129;28;20027;-91
2023/08/05 07:10:58;;;;;;;8.18;5.18;;;;;;;15.80;92.71;101318.28;4991871;28;20014;-90
2023/08/05 07:13:27;;;;;;;8.20;5.07;;;;;;;15.82;92.91;101312.97;4993655;28;20386;-90
2023/08/05 07:16:02;;;;;;;8.63;5.40;;;;;;;15.87;92.57;101309.31;4993457;28;20113;-91
2023/08/05 07:18:28;;;;;;;8.55;4.57;;;;;;;15.93;93.63;101306.41;4991719;28;20058;-91
2023/08/05 07:20:53;;;;;;;6.85;5.07;;;;;;;16.01;92.53;101303.47;4992244;28;20094;-90
2023/08/05 07:23:19;;;;;;;6.40;4.55;;;;;;;16.08;91.63;101304.06;4991747;28;20077;-90
2023/08/05 07:25:44;;;;;;;8.23;5.10;;;;;;;16.10;90.44;101297.00;4990524;28;20038;-92
2023/08/05 07:28:09;;;;;;;6.28;4.60;;;;;;;16.12;89.92;101297.78;4989289;28;20082;-91
2023/08/05 07:30:35;;;;;;;7.18;4.43;;;;;;;16.15;90.36;101297.66;4991791;28;20080;-91
2023/08/05 07:33:00;;;;;;;6.13;4.60;;;;;;;16.16;89.84;101307.25;4990172;28;20050;-90
2023/08/05 07:35:28;;;;;;;6.55;4.47;;;;;;;16.20;90.33;101298.31;4992726;28;20391;-90
2023/08/05 07:37:55;;;;;;;7.50;4.85;;;;;;;16.22;89.57;101301.75;4973544;28;20022;-91
2023/08/05 07:40:21;;;;;;;5.70;3.92;;;;;;;16.23;88.67;101303.41;4971839;28;20026;-90
2023/08/05 07:42:48;;;;;;;6.43;4.38;;;;;;;16.27;88.17;101305.94;4991500;28;20037;-91
2023/08/05 07:45:16;;;;;;;5.45;4.00;;;;;;;16.28;87.38;101302.38;4967259;28;20117;-90
2023/08/05 07:47:43;;;;;;;6.78;4.43;;;;;;;16.30;87.45;101297.91;4983996;28;20084;-90
2023/08/05 07:50:14;;;;;;;5.78;4.53;;;;;;;16.33;89.02;101296.00;4986777;28;20111;-90
2023/08/05 07:52:39;;;;;;;6.22;4.53;;;;;;;16.39;88.43;101297.53;4992818;28;20030;-91
2023/08/05 07:55:05;;;;;;;5.25;4.18;;;;;;;16.43;86.52;101290.38;4983984;28;20377;-91
2023/08/05 07:57:31;;;;;;;5.80;4.20;;;;;;;16.48;87.11;101281.38;4986578;28;20026;-92
2023/08/05 07:59:56;;;;;;;6.40;4.15;;;;;;;16.54;85.87;101286.38;4988594;28;20026;-93
2023/08/05 08:02:22;;;;;;;4.85;3.95;;;;;;;16.61;86.46;101278.19;4988010;28;20030;-93
2023/08/05 08:04:51;;;;;;;6.03;4.18;;;;;;;16.67;86.28;101272.69;4987530;28;20030;-91
2023/08/05 08:07:17;;;;;;;7.43;4.60;;;;;;;16.73;85.94;101266.31;4971234;28;20026;-94
2023/08/05 08:09:42;;;;;;;5.88;3.90;;;;;;;16.75;84.10;101267.09;4987207;28;20042;-91
2023/08/05 08:12:07;;;;;;;5.13;3.38;;;;;;;16.77;84.03;101267.88;4988667;28;20519;-90
2023/08/05 08:14:33;;;;;;;5.57;3.83;;;;;;;16.82;86.30;101250.13;4969367;28;20475;-90
2023/08/05 08:16:59;;;;;;;5.97;3.92;;;;;;;16.88;83.57;101251.63;4996088;28;20098;-91
2023/08/05 08:19:24;;;;;;;4.72;3.55;;;;;;;16.94;83.24;101251.31;4969873;28;20674;-93
2023/08/05 08:21:49;;;;;;;5.20;3.67;;;;;;;16.98;83.55;101252.94;4968364;28;20030;-92
2023/08/05 08:24:15;;;;;;;4.30;3.10;;;;;;;16.98;82.63;101253.81;4983914;28;20497;-92
2023/08/05 08:26:40;;;;;;;4.85;3.50;;;;;;;16.99;82.24;101244.13;4983321;28;20045;-91
2023/08/05 08:29:05;;;;;;;5.70;3.28;;;;;;;17.01;82.71;101234.41;4989676;28;20061;-92
2023/08/05 08:31:31;;;;;;;4.68;3.03;;;;;;;17.02;81.81;101238.72;4987736;28;20532;-89
2023/08/05 08:33:57;;;;;;;4.63;3.35;;;;;;;17.05;81.90;101240.34;4988701;28;20379;-89
2023/08/05 08:36:24;;;;;;;3.85;3.10;;;;;;;17.08;82.76;101233.16;4985573;28;20033;-91
2023/08/05 08:38:49;;;;;;;3.60;3.20;;;;;;;17.12;82.04;101229.47;4985307;28;20542;-91
2023/08/05 08:41:14;;;;;;;5.85;3.33;;;;;;;17.19;84.02;101213.41;4985876;28;20113;-93
2023/08/05 08:43:42;;;;;;;6.43;3.40;;;;;;;17.26;83.12;101222.69;4986779;28;20038;-91
2023/08/05 08:46:08;;;;;;;4.80;2.95;;;;;;;17.32;83.27;101213.69;4984635;28;20128;-91
2023/08/05 08:48:37;;;;;;;5.70;3.30;;;;;;;17.33;80.97;101210.13;4985412;28;20322;-93
2023/08/05 08:51:03;;;;;;;6.10;3.20;;;;;;;17.35;80.24;101209.13;4985254;28;20405;-91
2023/08/05 08:53:33;;;;;;;4.30;3.10;;;;;;;17.43;79.57;101208.75;4987016;28;20033;-91
2023/08/05 08:55:59;;;;;;;5.03;3.38;;;;;;;17.50;80.35;101211.94;4987561;28;20038;-93
2023/08/05 08:58:24;;;;;;;3.65;2.75;;;;;;;17.55;79.22;101196.78;4985707;28;20030;-93
2023/08/05 09:00:50;;;;;;;3.70;3.03;;;;;;;17.60;78.58;101192.13;4986767;28;20045;-91
2023/08/05 09:03:17;;;;;;;4.22;3.17;;;;;;;17.62;77.22;101192.91;4986920;28;20034;-91
2023/08/05 09:05:49;;;;;;;4.80;3.17;;;;;;;17.60;76.84;101189.50;4984391;28;20109;-91
2023/08/05 09:08:15;;;;;;;4.25;3.35;;;;;;;17.59;77.01;101185.19;4988609;28;20046;-90
2023/08/05 09:10:42;;;;;;;4.20;3.38;;;;;;;17.62;76.20;101185.00;4965344;28;20034;-89
2023/08/05 09:13:08;;;;;;;6.70;3.20;;;;;;;17.66;76.94;101186.56;4986843;28;20109;-88
2023/08/05 09:15:36;;;;;;;4.82;3.13;;;;;;;17.71;78.05;101175.81;4986885;28;20042;-88
2023/08/05 09:18:03;;;;;;;4.93;3.30;;;;;;;17.74;77.25;101163.38;4986924;28;20097;-89
2023/08/05 09:20:31;;;;;;;3.88;3.05;;;;;;;17.75;77.06;101164.19;4987908;28;20502;-89
2023/08/05 09:23:00;;;;;;;3.33;2.75;;;;;;;17.73;76.57;101158.16;4987140;28;20038;-90
2023/08/05 09:25:27;;;;;;;4.28;2.80;;;;;;;17.76;76.84;101144.84;4982382;28;20038;-89
2023/08/05 09:27:53;;;;;;;3.65;2.65;;;;;;;17.83;80.33;101150.66;4989833;28;20425;-89
2023/08/05 09:30:20;;;;;;;3.60;2.50;;;;;;;17.89;75.27;101139.81;4987467;28;20040;-90
2023/08/05 09:32:45;;;;;;;3.70;2.55;;;;;;;17.95;75.76;101144.75;4988187;28;20038;-90
2023/08/05 09:35:12;;;;;;;2.72;2.17;;;;;;;18.01;75.86;101141.84;4985400;28;20030;-90
2023/08/05 09:37:40;;;;;;;4.25;2.33;;;;;;;18.04;75.31;101131.16;4986037;28;20026;-92
2023/08/05 09:40:26;;;;;;;3.05;2.47;;;;;;;18.07;75.50;101131.91;4985651;28;20030;-93
2023/08/05 09:42:54;;;;;;;6.90;2.35;;;;;;;18.03;76.05;101124.19;4989761;28;20034;-91
2023/08/05 09:45:21;;;;;;;2.85;2.13;;;;;;;18.02;74.43;101125.09;4992523;28;20027;-93
2023/08/05 09:47:47;;;;;;;3.33;2.20;;;;;;;18.05;73.07;101121.44;4992925;28;20026;-91
2023/08/05 09:50:17;;;;;;;2.80;2.20;;;;;;;18.10;74.56;101106.28;4990311;28;20116;-92
2023/08/05 09:52:43;;;;;;;3.47;2.50;;;;;;;18.22;78.75;101093.38;4988780;28;20034;-92
2023/08/05 09:55:16;;;;;;;3.30;2.30;;;;;;;18.33;77.78;101102.38;4992717;28;20058;-93
2023/08/05 09:57:42;;;;;;;3.20;2.40;;;;;;;18.44;76.56;101099.19;4992114;28;20038;-94
2023/08/05 10:00:12;;;;;;;4.63;2.60;;;;;;;18.48;75.18;101100.72;4991042;28;20027;-92
2023/08/05 10:02:43;;;;;;;4.57;2.50;;;;;;;18.50;75.73;101096.22;4990557;28;20088;-92
2023/08/05 10:05:09;;;;;;;3.70;2.70;;;;;;;18.47;73.57;101093.75;4991633;28;20030;-91
2023/08/05 10:07:40;;;;;;;3.88;2.75;;;;;;;18.40;73.39;101086.25;4989772;28;20030;-92
2023/08/05 10:10:11;;;;;;;4.50;2.40;;;;;;;18.32;73.98;101090.16;4987431;28;20386;-90
2023/08/05 10:12:51;;;;;;;3.47;2.53;;;;;;;18.33;76.20;101081.31;4970627;28;20165;-91
2023/08/05 10:15:31;;;;;;;4.70;2.53;;;;;;;18.38;75.71;101077.59;4990278;28;20034;-91
2023/08/05 10:17:57;;;;;;;3.97;2.58;;;;;;;18.41;74.78;101078.25;4987275;28;20034;-92
2023/08/05 10:20:22;;;;;;;3.70;2.72;;;;;;;18.42;75.21;101064.16;4983835;28;20101;-89
2023/08/05 10:23:05;;;;;;;3.55;2.72;;;;;;;18.48;75.48;101060.31;4989773;28;20030;-90
2023/08/05 10:25:47;;;;;;;3.22;2.38;;;;;;;18.55;76.02;101056.44;4988902;28;20038;-92
2023/08/05 10:28:28;;;;;;;2.50;2.20;;;;;;;18.46;73.47;101046.38;4986962;28;20512;-93
2023/08/05 10:30:54;;;;;;;4.13;2.15;;;;;;;18.39;73.84;101055.59;4986904;28;20143;-91
2023/08/05 10:33:20;;;;;;;2.95;2.25;;;;;;;18.41;74.17;101051.09;4990813;28;20022;-91
2023/08/05 10:35:48;;;;;;;3.30;2.20;;;;;;;18.47;74.51;101041.06;4998939;28;20115;-91
2023/08/05 10:38:20;;;;;;;2.55;2.15;;;;;;;18.55;75.33;101038.00;4982754;28;20026;-91
2023/08/05 10:40:55;;;;;;;2.72;2.15;;;;;;;18.56;73.29;101029.16;4989090;28;20029;-91
2023/08/05 10:43:33;;;;;;;3.25;2.10;;;;;;;18.57;73.87;101041.38;4991451;28;20057;-91
2023/08/05 10:45:58;;;;;;;3.83;2.25;;;;;;;18.50;73.61;101038.25;4993582;28;20082;-94
2023/08/05 10:48:34;;;;;;;3.47;2.00;;;;;;;18.43;73.98;101033.41;4990582;28;20038;-92
2023/08/05 10:51:08;;;;;;;2.80;2.45;;;;;;;18.29;73.40;101036.81;4986524;28;20044;-89
2023/08/05 10:53:35;;;;;;;3.25;2.38;;;;;;;18.17;73.36;101043.59;4986492;28;20041;-92
2023/08/05 10:56:00;;;;;;;3.58;2.40;;;;;;;18.09;74.44;101040.53;4988039;28;20045;-92
2023/08/05 10:58:30;;;;;;;3.63;2.25;;;;;;;18.03;75.02;101039.94;4989106;28;20027;-92
2023/08/05 11:01:00;;;;;;;3.55;2.25;;;;;;;18.00;75.44;101045.34;4988102;28;20036;-91
2023/08/05 11:03:47;;;;;;;3.90;2.67;;;;;;;17.98;75.07;101039.31;4969433;28;20045;-90
2023/08/05 11:06:14;;;;;;;4.35;2.90;;;;;;;17.96;75.08;101033.25;4988888;28;20378;-90
2023/08/05 11:08:41;;;;;;;4.45;2.80;;;;;;;18.06;75.56;101031.00;4989914;28;20030;-92
2023/08/05 11:11:09;;;;;;;4.30;2.92;;;;;;;18.21;75.04;101029.34;4988439;28;20113;-91
2023/08/05 11:13:36;;;;;;;7.88;3.13;;;;;;;18.34;72.84;101014.53;4988993;28;20030;-91
2023/08/05 11:16:08;;;;;;;4.22;3.13;;;;;;;18.49;72.74;101009.34;4986874;28;20390;-90
2023/08/05 11:18:34;;;;;;;5.43;3.00;;;;;;;18.62;70.08;101012.13;4989108;28;20026;-91
2023/08/05 11:21:02;;;;;;;5.07;2.63;;;;;;;18.70;67.56;101016.97;4986230;28;20528;-93